Time;durP1;ratioP1;P1;durP2;ratioP2;P2;SDS_P1;SDS_P2;PMS_P1;PMS_P2;Temp;Humidity;BMP_temperature;BMP_pressure;BME280_temperature;BME280_humidity;BME280_pressure;Samples;Min_cycle;Max_cycle;Signal;HPM_P1;HPM_P2
2021/12/26 00:02:09;;;;;;;;;;;;;;;4.49;64.04;100006.25;4893650;29;1284;-96
2021/12/26 00:04:35;;;;;;;;;;;;;;;4.54;64.04;100001.19;4908393;29;2110;-96
2021/12/26 00:07:02;;;;;;;;;;;;;;;4.52;64.24;100000.53;4907452;29;2277;-96
2021/12/26 00:09:28;;;;;;;;;;;;;;;4.50;64.06;100004.41;4905344;29;2820;-96
2021/12/26 00:17:21;;;;;;;;;;;;;;;4.52;63.81;99999.72;4906401;29;1507;-96
2021/12/26 00:22:38;;;;;;;;;;;;;;;4.50;64.16;99993.75;4903553;29;2099;-96
2021/12/26 00:25:05;;;;;;;;;;;;;;;4.53;63.84;99999.53;4907760;29;1323;-96
2021/12/26 00:27:31;;;;;;;;;;;;;;;4.50;64.10;100007.94;4906356;29;2435;-96
2021/12/26 00:29:58;;;;;;;;;;;;;;;4.50;64.09;100004.41;4909923;29;1992;-96
2021/12/26 00:32:24;;;;;;;;;;;;;;;4.52;63.88;100007.72;4900378;29;1207;-96
2021/12/26 00:34:51;;;;;;;;;;;;;;;4.47;64.08;99999.47;4917513;29;5303;-96
2021/12/26 00:37:17;;;;;;;;;;;;;;;4.49;64.19;100010.78;4911057;29;1554;-96
2021/12/26 00:39:44;;;;;;;;;;;;;;;4.50;64.09;100020.41;4905361;29;2540;-96
2021/12/26 00:42:11;;;;;;;;;;;;;;;4.49;64.04;100010.78;4906803;29;2319;-96
2021/12/26 00:44:39;;;;;;;;;;;;;;;4.46;64.19;100013.84;4906723;29;1379;-96
2021/12/26 00:47:06;;;;;;;;;;;;;;;4.45;64.27;100009.53;4906051;29;1324;-96
2021/12/26 00:49:32;;;;;;;;;;;;;;;4.50;64.06;100018.59;4906309;29;2152;-96
2021/12/26 00:51:59;;;;;;;;;;;;;;;4.50;64.08;100013.25;4905598;29;2199;-96
2021/12/26 00:54:25;;;;;;;;;;;;;;;4.48;63.90;100015.28;4905749;29;2108;-96
2021/12/26 00:56:52;;;;;;;;;;;;;;;4.48;63.95;100017.97;4905636;29;2119;-96
2021/12/26 00:59:32;;;;;;;;;;;;;;;4.49;64.03;100016.09;4906915;29;5632;-96
2021/12/26 01:04:47;;;;;;;;;;;;;;;4.47;64.05;100021.66;4919795;29;2414;-96
2021/12/26 01:07:24;;;;;;;;;;;;;;;4.49;64.03;100021.44;4901961;29;2376;-96
2021/12/26 01:09:52;;;;;;;;;;;;;;;4.50;64.01;100023.94;4903631;29;1988;-96
2021/12/26 01:12:19;;;;;;;;;;;;;;;4.51;63.76;100028.25;4905489;29;1392;-96
2021/12/26 01:14:50;;;;;;;;;;;;;;;4.46;63.97;100027.16;4906359;29;1458;-96
2021/12/26 01:17:20;;;;;;;;;;;;;;;4.48;63.91;100033.97;4905298;29;1408;-96
2021/12/26 01:23:04;;;;;;;;;;;;;;;4.44;64.01;100029.19;4904432;29;4022;-96
2021/12/26 01:25:44;;;;;;;;;;;;;;;4.45;63.80;100034.34;4904166;29;1179;-96
2021/12/26 01:28:11;;;;;;;;;;;;;;;4.43;64.08;100028.38;4902745;29;5385;-96
2021/12/26 01:30:39;;;;;;;;;;;;;;;4.45;63.90;100030.84;4895915;29;1964;-96
2021/12/26 01:33:05;;;;;;;;;;;;;;;4.46;63.95;100027.16;4904544;29;2113;-96
2021/12/26 01:35:35;;;;;;;;;;;;;;;4.43;64.02;100032.88;4897381;29;1223;-96
2021/12/26 01:38:01;;;;;;;;;;;;;;;4.45;64.02;100033.53;4913448;29;2136;-96
2021/12/26 01:40:27;;;;;;;;;;;;;;;4.46;63.79;100029.81;4904513;29;1280;-96
2021/12/26 01:43:01;;;;;;;;;;;;;;;4.45;63.77;100031.69;4904121;29;1864;-96
2021/12/26 01:45:28;;;;;;;;;;;;;;;4.43;64.00;100035.56;4901738;29;1360;-97
2021/12/26 01:47:54;;;;;;;;;;;;;;;4.43;63.85;100033.69;4899760;29;1671;-96
2021/12/26 01:50:21;;;;;;;;;;;;;;;4.45;63.98;100037.00;4904110;29;1932;-96
2021/12/26 01:58:20;;;;;;;;;;;;;;;4.43;63.97;100039.03;4894130;29;2389;-96
2021/12/26 02:03:27;;;;;;;;;;;;;;;4.44;63.90;100045.19;4901682;29;1793;-96
2021/12/26 02:14:26;;;;;;;;;;;;;;;4.41;63.95;100048.25;4917868;29;1426;-96
2021/12/26 02:16:53;;;;;;;;;;;;;;;4.36;64.05;100042.69;4902737;29;1354;-96
2021/12/26 02:19:19;;;;;;;;;;;;;;;4.35;64.00;100052.50;4903423;29;1783;-96
2021/12/26 02:22:00;;;;;;;;;;;;;;;4.33;64.12;100060.69;4917629;29;1884;-96
2021/12/26 02:25:06;;;;;;;;;;;;;;;4.36;63.92;100056.00;4919181;29;2386;-96
2021/12/26 02:27:33;;;;;;;;;;;;;;;4.38;63.94;100064.63;4884726;29;1320;-96
2021/12/26 02:30:05;;;;;;;;;;;;;;;4.40;63.93;100059.94;4918792;29;2045;-96
2021/12/26 02:32:32;;;;;;;;;;;;;;;4.38;63.99;100057.44;4904683;29;1427;-96
2021/12/26 02:34:59;;;;;;;;;;;;;;;4.41;63.81;100054.41;4894190;29;2530;-96
2021/12/26 02:37:25;;;;;;;;;;;;;;;4.37;64.00;100057.66;4891154;29;2095;-96
2021/12/26 02:42:36;;;;;;;;;;;;;;;4.38;63.80;100049.44;4919220;29;1601;-96
2021/12/26 02:45:12;;;;;;;;;;;;;;;4.37;63.66;100044.31;4903579;29;1255;-96
2021/12/26 02:47:39;;;;;;;;;;;;;;;4.39;63.99;100050.28;4899968;29;1556;-96
2021/12/26 02:50:06;;;;;;;;;;;;;;;4.37;63.95;100050.47;4902551;29;2128;-96
2021/12/26 02:52:36;;;;;;;;;;;;;;;4.37;63.98;100049.66;4904483;29;1802;-96
2021/12/26 02:55:06;;;;;;;;;;;;;;;4.33;63.86;100058.03;4905084;29;1228;-96
2021/12/26 02:57:32;;;;;;;;;;;;;;;4.31;64.06;100053.91;4919007;29;2244;-96
2021/12/26 02:59:59;;;;;;;;;;;;;;;4.31;64.21;100051.25;4904024;29;2784;-96
2021/12/26 03:02:25;;;;;;;;;;;;;;;4.33;63.93;100043.88;4904269;29;1225;-96
2021/12/26 03:07:35;;;;;;;;;;;;;;;4.30;64.08;100045.09;4903270;29;2736;-96
2021/12/26 03:10:01;;;;;;;;;;;;;;;4.28;64.11;100051.63;4905434;29;5469;-96
2021/12/26 03:12:29;;;;;;;;;;;;;;;4.29;63.90;100062.09;4902858;29;1791;-96
2021/12/26 03:15:05;;;;;;;;;;;;;;;4.30;64.06;100060.25;4889815;29;1390;-96
2021/12/26 03:17:31;;;;;;;;;;;;;;;4.29;63.78;100061.25;4900369;29;1192;-96
2021/12/26 03:19:58;;;;;;;;;;;;;;;4.28;64.05;100062.28;4903807;29;1752;-96
2021/12/26 03:22:24;;;;;;;;;;;;;;;4.29;64.11;100070.09;4898259;29;1314;-96
2021/12/26 03:24:51;;;;;;;;;;;;;;;4.28;64.01;100062.28;4897668;29;1801;-96
2021/12/26 03:27:17;;;;;;;;;;;;;;;4.30;63.98;100065.59;4884968;29;2360;-96
2021/12/26 03:32:45;;;;;;;;;;;;;;;4.30;63.98;100061.09;4899784;29;2107;-96
2021/12/26 03:38:39;;;;;;;;;;;;;;;4.35;63.83;100059.66;4908013;29;1809;-96
2021/12/26 03:41:06;;;;;;;;;;;;;;;4.33;63.75;100055.38;4916451;29;2155;-96
2021/12/26 03:43:33;;;;;;;;;;;;;;;4.34;63.76;100069.50;4900894;29;5378;-96
2021/12/26 03:51:38;;;;;;;;;;;;;;;4.35;63.85;100057.00;4897029;29;2236;-96
2021/12/26 03:54:11;;;;;;;;;;;;;;;4.32;63.68;100066.22;4895320;29;5474;-96
2021/12/26 03:56:37;;;;;;;;;;;;;;;4.35;63.66;100065.00;4906079;29;2203;-96
2021/12/26 03:59:04;;;;;;;;;;;;;;;4.32;63.90;100060.88;4903573;29;2172;-96
2021/12/26 04:01:31;;;;;;;;;;;;;;;4.36;63.59;100066.69;4918763;29;1183;-96
2021/12/26 04:04:00;;;;;;;;;;;;;;;4.30;63.77;100071.75;4901294;29;5245;-96
2021/12/26 04:06:27;;;;;;;;;;;;;;;4.28;63.86;100078.28;4908382;29;1335;-96
2021/12/26 04:08:53;;;;;;;;;;;;;;;4.30;63.82;100076.25;4912041;29;2322;-96
2021/12/26 04:11:20;;;;;;;;;;;;;;;4.27;64.02;100080.13;4904269;29;2234;-96
2021/12/26 04:13:46;;;;;;;;;;;;;;;4.29;63.80;100069.25;4890748;29;3898;-96
2021/12/26 04:19:14;;;;;;;;;;;;;;;4.34;63.56;100072.19;4917730;29;1425;-96
2021/12/26 04:21:41;;;;;;;;;;;;;;;4.28;63.83;100071.09;4888568;29;2373;-96
2021/12/26 04:24:07;;;;;;;;;;;;;;;4.28;63.78;100073.78;4898535;29;4261;-96
2021/12/26 04:26:43;;;;;;;;;;;;;;;4.28;63.86;100070.28;4906300;29;1303;-96
2021/12/26 04:29:09;;;;;;;;;;;;;;;4.30;63.91;100073.59;4903758;29;4604;-96
2021/12/26 04:31:42;;;;;;;;;;;;;;;4.31;63.80;100075.22;4897638;29;2037;-96
2021/12/26 04:34:08;;;;;;;;;;;;;;;4.32;63.71;100079.53;4894079;29;2195;-96
2021/12/26 04:36:35;;;;;;;;;;;;;;;4.25;63.88;100079.47;4898861;29;1179;-96
2021/12/26 04:39:01;;;;;;;;;;;;;;;4.26;63.95;100081.13;4893342;29;2368;-96
2021/12/26 04:41:28;;;;;;;;;;;;;;;4.28;63.77;100083.63;4905722;29;2067;-96
2021/12/26 04:49:28;;;;;;;;;;;;;;;4.29;63.58;100091.44;4902259;29;1700;-96
2021/12/26 04:51:55;;;;;;;;;;;;;;;4.28;63.60;100087.09;4904699;29;2265;-96
2021/12/26 04:54:21;;;;;;;;;;;;;;;4.25;63.67;100087.47;4898907;29;5632;-96
2021/12/26 04:56:48;;;;;;;;;;;;;;;4.22;63.85;100085.19;4890217;29;1918;-96
2021/12/26 04:59:14;;;;;;;;;;;;;;;4.22;63.95;100087.03;4890743;29;1488;-96
2021/12/26 05:05:02;;;;;;;;;;;;;;;4.26;63.87;100101.63;4914012;29;1995;-96
2021/12/26 05:07:28;;;;;;;;;;;;;;;4.22;64.07;100087.84;4894667;29;1406;-96
2021/12/26 05:12:44;;;;;;;;;;;;;;;4.26;63.70;100101.63;4896947;29;2302;-96
2021/12/26 05:15:11;;;;;;;;;;;;;;;4.24;63.77;100098.34;4907785;29;2597;-96
2021/12/26 05:20:21;;;;;;;;;;;;;;;4.25;63.72;100105.31;4885905;29;2308;-96
2021/12/26 05:22:47;;;;;;;;;;;;;;;4.28;63.65;100100.44;4903665;29;2316;-96
2021/12/26 05:25:14;;;;;;;;;;;;;;;4.26;63.77;100105.13;4889111;29;1157;-96
2021/12/26 05:27:40;;;;;;;;;;;;;;;4.29;63.66;100104.75;4898341;29;2184;-96
2021/12/26 05:30:13;;;;;;;;;;;;;;;4.28;63.46;100103.09;4899117;29;4532;-96
2021/12/26 05:32:39;;;;;;;;;;;;;;;4.29;63.61;100110.09;4914672;29;1923;-96
2021/12/26 05:35:06;;;;;;;;;;;;;;;4.27;63.62;100109.44;4902442;29;1382;-96
2021/12/26 05:37:32;;;;;;;;;;;;;;;4.29;63.65;100111.91;4898554;29;2872;-96
2021/12/26 05:40:02;;;;;;;;;;;;;;;4.27;63.76;100113.97;4896136;29;4869;-96
2021/12/26 05:42:28;;;;;;;;;;;;;;;4.26;63.86;100109.63;4890004;29;2424;-96
2021/12/26 05:44:55;;;;;;;;;;;;;;;4.27;63.70;100113.97;4884997;29;2310;-96
2021/12/26 05:47:21;;;;;;;;;;;;;;;4.24;63.60;100109.84;4895326;29;1423;-96
2021/12/26 06:00:56;;;;;;;;;;;;;;;4.28;63.62;100129.75;4883509;29;2320;-96
2021/12/26 06:03:23;;;;;;;;;;;;;;;4.23;63.71;100121.50;4903663;29;2550;-96
2021/12/26 06:05:49;;;;;;;;;;;;;;;4.25;63.60;100127.47;4905123;29;2135;-96
2021/12/26 06:11:05;;;;;;;;;;;;;;;4.26;63.64;100137.09;4874980;29;1907;-96
2021/12/26 06:13:33;;;;;;;;;;;;;;;4.28;63.63;100129.75;4893595;29;2350;-96
2021/12/26 06:16:00;;;;;;;;;;;;;;;4.28;63.60;100140.41;4910940;29;1520;-96
2021/12/26 06:18:26;;;;;;;;;;;;;;;4.24;63.75;100136.50;4892250;29;1967;-96
2021/12/26 06:23:33;;;;;;;;;;;;;;;4.26;63.68;100134.44;4892689;29;4867;-96
2021/12/26 06:25:59;;;;;;;;;;;;;;;4.28;63.52;100140.41;4915991;29;2222;-96
2021/12/26 06:28:29;;;;;;;;;;;;;;;4.26;63.57;100149.63;4913159;29;2122;-96
2021/12/26 06:30:55;;;;;;;;;;;;;;;4.28;63.50;100148.41;4902809;29;5328;-96
2021/12/26 06:33:22;;;;;;;;;;;;;;;4.24;63.72;100152.47;4905312;29;2254;-96
2021/12/26 06:35:49;;;;;;;;;;;;;;;4.23;63.60;100137.47;4887796;29;1801;-96
2021/12/26 06:38:16;;;;;;;;;;;;;;;4.25;63.65;100139.97;4884166;29;3174;-96
2021/12/26 06:40:42;;;;;;;;;;;;;;;4.24;63.95;100138.34;4901956;29;1193;-96
2021/12/26 06:43:11;;;;;;;;;;;;;;;4.22;63.70;100135.03;4887279;29;2190;-96
2021/12/26 06:45:40;;;;;;;;;;;;;;;4.22;63.56;100137.69;4909408;29;1433;-96
2021/12/26 06:48:18;;;;;;;;;;;;;;;4.24;63.69;100133.00;4889578;29;2409;-96
2021/12/26 06:53:27;;;;;;;;;;;;;;;4.19;63.87;100141.56;4899665;29;4674;-96
2021/12/26 06:55:54;;;;;;;;;;;;;;;4.18;63.86;100137.25;4906700;29;2016;-96
2021/12/26 06:58:20;;;;;;;;;;;;;;;4.22;63.78;100132.34;4899689;29;1720;-96
2021/12/26 07:00:47;;;;;;;;;;;;;;;4.22;63.45;100138.50;4899080;29;2046;-96
2021/12/26 07:03:13;;;;;;;;;;;;;;;4.21;63.78;100133.38;4897696;29;2706;-96
2021/12/26 07:08:26;;;;;;;;;;;;;;;4.20;63.85;100135.19;4890024;29;5409;-96
2021/12/26 07:11:01;;;;;;;;;;;;;;;4.21;63.71;100126.19;4890751;29;2885;-96
2021/12/26 07:13:28;;;;;;;;;;;;;;;4.22;63.78;100133.19;4901580;29;2052;-96
2021/12/26 07:15:54;;;;;;;;;;;;;;;4.23;63.85;100137.47;4907534;29;1638;-96
2021/12/26 07:18:20;;;;;;;;;;;;;;;4.22;63.65;100133.19;4884477;29;5250;-96
2021/12/26 07:20:47;;;;;;;;;;;;;;;4.20;63.65;100132.53;4886534;29;1389;-96
2021/12/26 07:23:13;;;;;;;;;;;;;;;4.19;63.77;100130.88;4893140;29;1869;-96
2021/12/26 07:25:40;;;;;;;;;;;;;;;4.21;63.95;100130.72;4901836;29;1255;-96
2021/12/26 07:28:06;;;;;;;;;;;;;;;4.16;63.80;100125.94;4898563;29;2722;-96
2021/12/26 07:30:33;;;;;;;;;;;;;;;4.19;63.76;100130.06;4890271;29;1915;-96
2021/12/26 07:32:59;;;;;;;;;;;;;;;4.16;63.53;100131.25;4884043;29;2257;-96
2021/12/26 07:35:25;;;;;;;;;;;;;;;4.21;63.68;100131.53;4905649;29;1491;-96
2021/12/26 07:37:52;;;;;;;;;;;;;;;4.20;63.72;100143.19;4888294;29;3571;-96
2021/12/26 07:40:19;;;;;;;;;;;;;;;4.19;63.74;100144.22;4912894;29;5123;-96
2021/12/26 07:42:45;;;;;;;;;;;;;;;4.19;63.68;100140.72;4899846;29;2254;-96
2021/12/26 07:45:12;;;;;;;;;;;;;;;4.21;63.62;100149.38;4883019;29;1438;-96
2021/12/26 07:47:38;;;;;;;;;;;;;;;4.19;63.76;100146.88;4899436;29;2224;-96
2021/12/26 07:50:05;;;;;;;;;;;;;;;4.18;63.78;100150.56;4900374;29;1575;-96
2021/12/26 07:52:35;;;;;;;;;;;;;;;4.18;63.54;100147.91;4888161;29;2337;-96
2021/12/26 07:55:03;;;;;;;;;;;;;;;4.17;63.78;100154.22;4894898;29;5302;-96
2021/12/26 07:57:29;;;;;;;;;;;;;;;4.18;63.54;100153.25;4898492;29;2257;-96
2021/12/26 07:59:56;;;;;;;;;;;;;;;4.21;63.53;100157.38;4897943;29;1932;-96
2021/12/26 08:02:22;;;;;;;;;;;;;;;4.20;63.44;100161.03;4900003;29;1651;-96
2021/12/26 08:04:49;;;;;;;;;;;;;;;4.22;63.47;100159.00;4902546;29;4873;-96
2021/12/26 08:07:15;;;;;;;;;;;;;;;4.22;63.50;100159.00;4917636;29;1199;-96
2021/12/26 08:09:41;;;;;;;;;;;;;;;4.19;63.75;100162.06;4891643;29;2238;-96
2021/12/26 08:12:11;;;;;;;;;;;;;;;4.19;63.67;100165.53;4899088;29;1968;-96
2021/12/26 08:14:37;;;;;;;;;;;;;;;4.16;63.85;100163.25;4915992;29;1994;-96
2021/12/26 08:17:04;;;;;;;;;;;;;;;4.18;63.73;100157.75;4899642;29;2122;-96
2021/12/26 08:19:30;;;;;;;;;;;;;;;4.17;63.78;100166.75;4894928;29;5193;-96
2021/12/26 08:21:57;;;;;;;;;;;;;;;4.17;63.75;100161.41;4898124;29;1309;-96
2021/12/26 08:24:26;;;;;;;;;;;;;;;4.15;63.71;100169.59;4891013;29;1817;-96
2021/12/26 08:26:52;;;;;;;;;;;;;;;4.17;63.70;100172.88;4899162;29;1892;-96
2021/12/26 08:29:21;;;;;;;;;;;;;;;4.19;63.62;100178.88;4890572;29;5416;-96
2021/12/26 08:31:48;;;;;;;;;;;;;;;4.17;63.54;100178.22;4887666;29;2091;-96
2021/12/26 08:34:19;;;;;;;;;;;;;;;4.18;63.75;100187.88;4894418;29;5011;-96
2021/12/26 08:36:48;;;;;;;;;;;;;;;4.18;63.62;100190.56;4905425;29;1171;-96
2021/12/26 08:39:15;;;;;;;;;;;;;;;4.19;63.40;100192.19;4893577;29;2008;-96
2021/12/26 08:41:50;;;;;;;;;;;;;;;4.21;63.43;100203.50;4886607;29;1207;-96
2021/12/26 08:47:09;;;;;;;;;;;;;;;4.20;63.50;100201.00;4897047;29;1396;-96
2021/12/26 08:49:35;;;;;;;;;;;;;;;4.23;63.26;100203.31;4916893;29;1588;-96
2021/12/26 08:52:09;;;;;;;;;;;;;;;4.20;63.55;100204.50;4920907;29;1906;-96
2021/12/26 08:54:49;;;;;;;;;;;;;;;4.20;63.51;100198.34;4931561;23;4229;-96
2021/12/26 08:57:18;;;;;;;;;;;;;;;4.17;63.54;100204.06;4891982;29;1167;-96
2021/12/26 08:59:48;;;;;;;;;;;;;;;4.17;63.60;100204.88;4893752;29;1502;-96
2021/12/26 09:02:14;;;;;;;;;;;;;;;4.14;63.64;100196.44;4891689;29;2137;-96
2021/12/26 09:04:41;;;;;;;;;;;;;;;4.19;63.65;100191.38;4891892;29;3741;-96
2021/12/26 09:07:07;;;;;;;;;;;;;;;4.20;63.69;100185.03;4885467;29;1676;-96
2021/12/26 09:09:38;;;;;;;;;;;;;;;4.19;63.60;100188.72;4884674;29;1995;-96
2021/12/26 09:12:05;;;;;;;;;;;;;;;4.19;63.43;100188.72;4885353;29;4739;-96
2021/12/26 09:14:34;;;;;;;;;;;;;;;4.21;63.42;100192.03;4909928;29;5262;-96
2021/12/26 09:17:03;;;;;;;;;;;;;;;4.16;63.45;100194.41;4900123;29;2387;-96
2021/12/26 09:22:15;;;;;;;;;;;;;;;4.17;63.49;100204.06;4919732;29;1391;-96
2021/12/26 09:24:42;;;;;;;;;;;;;;;4.19;63.50;100207.38;4911730;29;2228;-96
2021/12/26 09:27:08;;;;;;;;;;;;;;;4.17;63.39;100207.53;4871068;29;1366;-96
2021/12/26 09:29:35;;;;;;;;;;;;;;;4.18;63.47;100219.88;4908941;29;1844;-96
2021/12/26 09:32:03;;;;;;;;;;;;;;;4.20;63.35;100209.84;4892892;29;1967;-96
2021/12/26 09:34:32;;;;;;;;;;;;;;;4.18;63.40;100221.72;4905010;29;1811;-96
2021/12/26 09:37:02;;;;;;;;;;;;;;;4.20;63.45;100225.84;4909584;29;1254;-96
2021/12/26 09:39:29;;;;;;;;;;;;;;;4.17;63.44;100230.72;4891443;29;1780;-96
2021/12/26 09:41:55;;;;;;;;;;;;;;;4.14;63.46;100226.56;4893929;29;1234;-96
2021/12/26 09:44:22;;;;;;;;;;;;;;;4.13;63.59;100230.25;4890924;29;2371;-96
2021/12/26 09:46:52;;;;;;;;;;;;;;;4.11;63.69;100226.94;4892403;29;1216;-96
2021/12/26 09:49:44;;;;;;;;;;;;;;;4.13;63.76;100224.13;4901946;29;1692;-96
2021/12/26 09:52:14;;;;;;;;;;;;;;;4.13;63.40;100216.13;4908773;29;1976;-96
2021/12/26 09:54:42;;;;;;;;;;;;;;;4.19;63.32;100218.03;4899606;29;1410;-96
2021/12/26 09:57:10;;;;;;;;;;;;;;;4.12;63.59;100217.09;4895960;29;1791;-96
2021/12/26 09:59:43;;;;;;;;;;;;;;;4.13;63.65;100216.13;4897843;29;2060;-96
2021/12/26 10:02:10;;;;;;;;;;;;;;;4.11;63.76;100218.94;4899254;29;2301;-96
2021/12/26 10:04:39;;;;;;;;;;;;;;;4.13;63.66;100222.25;4890650;29;1891;-96
2021/12/26 10:07:05;;;;;;;;;;;;;;;4.15;63.40;100224.72;4872666;29;1553;-96
2021/12/26 10:09:44;;;;;;;;;;;;;;;4.14;63.71;100221.25;4903965;29;1243;-96
2021/12/26 10:12:12;;;;;;;;;;;;;;;4.12;63.76;100219.78;4898005;29;1902;-96
2021/12/26 10:14:39;;;;;;;;;;;;;;;4.10;63.68;100220.78;4890942;29;2074;-96
2021/12/26 10:17:06;;;;;;;;;;;;;;;4.12;63.65;100211.78;4879335;29;1372;-96
2021/12/26 10:19:32;;;;;;;;;;;;;;;4.10;63.69;100212.81;4889738;29;1748;-96
2021/12/26 10:22:00;;;;;;;;;;;;;;;4.17;63.59;100223.53;4891968;29;1192;-96
2021/12/26 10:24:30;;;;;;;;;;;;;;;4.19;63.49;100216.19;4895784;29;1632;-96
2021/12/26 10:26:57;;;;;;;;;;;;;;;4.19;63.26;100216.19;4896474;29;1212;-96
2021/12/26 10:29:23;;;;;;;;;;;;;;;4.18;63.54;100214.53;4880836;29;1922;-96
2021/12/26 10:31:50;;;;;;;;;;;;;;;4.19;63.44;100215.38;4900573;29;1907;-96
2021/12/26 10:34:17;;;;;;;;;;;;;;;4.18;63.67;100214.53;4897771;29;1721;-96
2021/12/26 10:36:44;;;;;;;;;;;;;;;4.20;63.57;100207.16;4869906;29;1341;-96
2021/12/26 10:39:12;;;;;;;;;;;;;;;4.18;63.55;100208.41;4895379;29;1586;-96
2021/12/26 10:41:38;;;;;;;;;;;;;;;4.20;63.39;100201.00;4891702;29;1661;-96
2021/12/26 10:44:08;;;;;;;;;;;;;;;4.21;63.41;100200.03;4900178;29;1345;-96
2021/12/26 10:46:38;;;;;;;;;;;;;;;4.20;63.63;100198.34;4902913;29;1503;-96
2021/12/26 10:49:18;;;;;;;;;;;;;;;4.22;63.57;100201.66;4903652;29;1684;-96
2021/12/26 10:51:47;;;;;;;;;;;;;;;4.25;63.43;100203.97;4900545;29;1951;-96
2021/12/26 10:54:20;;;;;;;;;;;;;;;4.25;63.22;100201.28;4901954;29;1367;-96
2021/12/26 11:02:24;;;;;;;;;;;;;;;4.24;63.63;100202.31;4921479;29;1618;-96
2021/12/26 11:38:19;;;;;;;;;;;;;;;4.35;63.81;100183.13;5371049;23;1647;-96
2021/12/26 11:41:35;;;;;;;;;;;;;;;4.37;63.74;100185.63;4957094;29;2302;-96
2021/12/26 11:44:02;;;;;;;;;;;;;;;4.37;63.62;100186.44;4958699;29;1479;-96
2021/12/26 11:46:32;;;;;;;;;;;;;;;4.37;63.71;100181.13;4948620;29;1741;-96
2021/12/26 11:49:19;;;;;;;;;;;;;;;4.39;63.61;100183.63;4960830;29;1533;-96
2021/12/26 11:52:04;;;;;;;;;;;;;;;4.37;64.00;100180.31;5008807;23;2069;-96
2021/12/26 11:54:31;;;;;;;;;;;;;;;4.41;63.81;100178.91;4949567;29;1148;-96
2021/12/26 12:07:51;;;;;;;;;;;;;;;4.46;63.87;100158.66;4969802;28;1443;-96
2021/12/26 12:10:46;;;;;;;;;;;;;;;4.46;63.87;100160.50;4974587;28;1006;-96
2021/12/26 12:13:14;;;;;;;;;;;;;;;4.48;64.04;100158.47;4955891;29;2106;-96
2021/12/26 12:15:41;;;;;;;;;;;;;;;4.48;63.83;100159.31;4987566;23;2025;-96
2021/12/26 12:18:07;;;;;;;;;;;;;;;4.48;63.94;100166.47;4931073;29;1554;-96
2021/12/26 12:20:34;;;;;;;;;;;;;;;4.54;64.04;100160.38;4967616;29;1613;-96
2021/12/26 12:23:06;;;;;;;;;;;;;;;4.52;63.91;100160.56;4958385;29;1804;-96
2021/12/26 12:25:56;;;;;;;;;;;;;;;4.52;63.98;100155.22;4958276;29;1166;-96
2021/12/26 12:31:27;;;;;;;;;;;;;;;4.57;63.97;100162.66;4943450;29;1265;-96
2021/12/26 12:36:49;;;;;;;;;;;;;;;4.59;64.00;100171.31;4940273;29;1251;-96
2021/12/26 12:42:27;;;;;;;;;;;;;;;4.60;63.97;100164.13;5716133;23;1626;-96
2021/12/26 13:10:10;;;;;;;;;;;;;;;4.76;64.23;100155.88;4927833;29;1212;-96
2021/12/26 13:16:09;;;;;;;;;;;;;;;4.78;64.22;100157.31;4970022;29;1450;-96
2021/12/26 13:19:01;;;;;;;;;;;;;;;4.81;64.12;100157.97;4962828;29;1210;-96
2021/12/26 13:21:33;;;;;;;;;;;;;;;4.81;64.08;100153.44;4973084;29;1067;-96
2021/12/26 13:24:00;;;;;;;;;;;;;;;4.84;64.19;100161.06;4960361;29;1704;-96
2021/12/26 13:26:27;;;;;;;;;;;;;;;4.85;64.11;100159.22;4938553;29;1679;-96
2021/12/26 13:28:54;;;;;;;;;;;;;;;4.85;64.19;100165.38;4961865;29;2321;-96
2021/12/26 13:31:22;;;;;;;;;;;;;;;4.87;64.03;100168.69;4950866;29;1283;-96
2021/12/26 13:33:49;;;;;;;;;;;;;;;4.88;64.12;100174.84;4951780;29;1988;-96
2021/12/26 13:36:17;;;;;;;;;;;;;;;4.90;64.18;100181.66;4950553;29;1865;-96
2021/12/26 13:38:46;;;;;;;;;;;;;;;4.90;64.33;100176.31;4955034;29;1556;-96
2021/12/26 13:41:13;;;;;;;;;;;;;;;4.90;64.13;100173.66;4953832;29;1124;-96
2021/12/26 13:43:41;;;;;;;;;;;;;;;4.91;64.10;100177.13;4955805;29;1740;-96
2021/12/26 13:48:53;;;;;;;;;;;;;;;4.94;64.15;100172.28;4952690;29;1776;-96
2021/12/26 13:51:23;;;;;;;;;;;;;;;4.95;64.13;100167.75;4951282;29;1761;-96
2021/12/26 13:53:51;;;;;;;;;;;;;;;4.95;64.16;100171.25;4951198;29;1995;-96
2021/12/26 13:56:18;;;;;;;;;;;;;;;4.98;64.37;100175.38;4950337;29;1671;-96
2021/12/26 13:58:45;;;;;;;;;;;;;;;4.99;64.37;100177.00;4951397;29;1892;-96
2021/12/26 14:01:12;;;;;;;;;;;;;;;4.97;64.42;100163.88;4953193;29;1218;-96
2021/12/26 14:03:41;;;;;;;;;;;;;;;5.00;64.22;100179.50;4958079;29;1574;-96
2021/12/26 14:06:11;;;;;;;;;;;;;;;4.99;64.29;100166.34;4948439;29;1563;-96
2021/12/26 14:08:40;;;;;;;;;;;;;;;5.00;64.18;100166.16;4952300;29;1857;-96
2021/12/26 14:11:06;;;;;;;;;;;;;;;5.03;64.19;100167.63;4949020;29;1415;-96
2021/12/26 14:13:35;;;;;;;;;;;;;;;5.04;64.17;100165.78;4953293;29;1887;-96
2021/12/26 14:16:02;;;;;;;;;;;;;;;5.04;64.18;100171.09;4947298;29;1679;-96
2021/12/26 14:18:34;;;;;;;;;;;;;;;5.08;64.23;100161.69;4936257;29;2173;-96
2021/12/26 14:21:01;;;;;;;;;;;;;;;5.07;64.36;100162.72;4941833;29;1405;-96
2021/12/26 14:23:28;;;;;;;;;;;;;;;5.05;64.33;100154.88;4959521;29;1740;-96
2021/12/26 14:26:02;;;;;;;;;;;;;;;5.08;64.37;100159.00;4931776;29;2522;-96
2021/12/26 14:28:34;;;;;;;;;;;;;;;5.08;64.19;100149.16;4932900;29;1210;-96
2021/12/26 14:31:02;;;;;;;;;;;;;;;5.08;64.41;100151.00;4928604;29;2423;-96
2021/12/26 14:33:32;;;;;;;;;;;;;;;5.10;64.29;100160.47;4927114;29;1990;-96
2021/12/26 14:35:58;;;;;;;;;;;;;;;5.06;64.58;100167.22;4930428;29;2282;-96
2021/12/26 14:38:25;;;;;;;;;;;;;;;5.08;64.37;100170.50;4929066;29;1592;-96
2021/12/26 14:40:52;;;;;;;;;;;;;;;5.11;64.40;100162.13;4914576;29;1280;-96
2021/12/26 14:43:19;;;;;;;;;;;;;;;5.12;64.15;100166.47;4915876;29;1692;-96
2021/12/26 14:45:46;;;;;;;;;;;;;;;5.13;64.18;100156.59;4923697;29;2345;-96
2021/12/26 14:48:13;;;;;;;;;;;;;;;5.11;64.30;100161.28;4924295;29;1962;-96
2021/12/26 14:50:39;;;;;;;;;;;;;;;5.14;64.27;100155.56;4930090;29;1366;-96
2021/12/26 14:53:06;;;;;;;;;;;;;;;5.14;64.38;100155.56;4919666;29;4919;-96
2021/12/26 14:55:35;;;;;;;;;;;;;;;5.12;64.17;100153.09;4921857;29;1723;-96
2021/12/26 15:00:48;;;;;;;;;;;;;;;5.15;64.21;100154.56;4928946;29;1297;-96
2021/12/26 15:03:18;;;;;;;;;;;;;;;5.14;64.43;100159.06;4927144;29;2526;-96
2021/12/26 15:05:45;;;;;;;;;;;;;;;5.16;64.23;100158.88;4934687;29;1512;-96
2021/12/26 15:11:06;;;;;;;;;;;;;;;5.16;64.35;100150.88;4937551;29;1348;-96
2021/12/26 15:16:34;;;;;;;;;;;;;;;5.15;64.33;100149.22;4936758;29;902;-96
2021/12/26 15:19:11;;;;;;;;;;;;;;;5.15;64.53;100150.06;4939390;29;1358;-96
2021/12/26 15:21:40;;;;;;;;;;;;;;;5.20;64.08;100152.94;4939792;29;1353;-96
2021/12/26 15:24:12;;;;;;;;;;;;;;;5.19;64.42;100161.16;4937007;29;1516;-96
2021/12/26 15:35:14;;;;;;;;;;;;;;;5.19;64.36;100166.50;4937795;29;1310;-96
2021/12/26 15:40:25;;;;;;;;;;;;;;;5.20;64.30;100165.47;4937424;29;1253;-96
2021/12/26 15:42:55;;;;;;;;;;;;;;;5.22;64.23;100174.13;4946697;29;2078;-96
2021/12/26 15:48:22;;;;;;;;;;;;;;;5.20;64.36;100171.63;4883788;29;1434;-96
2021/12/26 15:53:39;;;;;;;;;;;;;;;5.20;64.37;100162.81;4897937;29;2716;-96
2021/12/26 15:56:11;;;;;;;;;;;;;;;5.18;64.56;100168.34;4917495;29;5259;-96
2021/12/26 15:58:44;;;;;;;;;;;;;;;5.18;64.44;100162.19;4920461;29;2079;-96
2021/12/26 16:01:13;;;;;;;;;;;;;;;5.20;64.54;100162.81;4923438;29;2295;-96
2021/12/26 16:03:45;;;;;;;;;;;;;;;5.20;64.38;100163.63;4921600;29;2236;-96
2021/12/26 16:09:21;;;;;;;;;;;;;;;5.21;64.44;100167.97;4923145;29;2246;-96
2021/12/26 16:11:48;;;;;;;;;;;;;;;5.21;64.22;100175.97;4928647;29;2461;-96
2021/12/26 16:17:15;;;;;;;;;;;;;;;5.20;64.24;100171.63;4927921;29;1531;-96
2021/12/26 16:22:25;;;;;;;;;;;;;;;5.23;64.33;100181.09;4929500;29;1408;-96
2021/12/26 16:24:55;;;;;;;;;;;;;;;5.23;64.51;100173.09;4931470;29;1888;-96
2021/12/26 16:27:22;;;;;;;;;;;;;;;5.22;64.24;100174.94;4930948;29;1402;-96
2021/12/26 16:29:54;;;;;;;;;;;;;;;5.23;64.21;100173.94;4915010;29;1664;-96
2021/12/26 16:32:22;;;;;;;;;;;;;;;5.21;64.28;100170.63;4930636;29;1887;-96
2021/12/26 16:34:49;;;;;;;;;;;;;;;5.22;64.29;100171.44;4932407;29;1297;-96
2021/12/26 16:37:15;;;;;;;;;;;;;;;5.23;64.20;100157.06;4923871;29;1347;-96
2021/12/26 16:39:43;;;;;;;;;;;;;;;5.21;64.23;100159.13;4924093;29;3930;-96
2021/12/26 16:42:10;;;;;;;;;;;;;;;5.21;64.08;100154.59;4919746;29;1462;-96
2021/12/26 16:44:39;;;;;;;;;;;;;;;5.21;64.32;100164.47;4926150;29;1673;-96